KCEF

Westover ARB / Metropolitan Airport

Springfield/Chicopee, Massachusetts, USA
METAR KCEF 191456Z 06010KT 10SM FEW075 BKN250 23/13 A3002 RMK AO2A SLP171 T02290134 52012
Observed Flight Rules
Aug-19 @ 14:56 UTC (43 minutes ago) Visual Flight Rules
Wind Visibility Clouds
60° at 10 knots 10 miles
  • Few at 7,500' AGL
  • Broken at 25,000' AGL
Temperatures Readings
Current 23°C / 73°F
Dewpoint 13°C / 55°F
Humidity 53%
Altimeter 30.02" Hg
Pressure 1017.1 hPa
Elevation 75
METAR KCEF 191456Z 06010KT 10SM FEW075 BKN250 23/13 A3002 RMK AO2A SLP171 T02290134 52012
Observed Flight Rules
Aug-19 @ 14:56 UTC
(43 minutes ago)
VFR
Wind Visibility
60° at 10 knots 10 miles
Clouds
  • Few at 7,500' AGL
  • Broken at 25,000' AGL
Temperature Dewpoint
23°C / 73°F 13°C / 55°F
Humidity Altimeter Pressure
53% 30.02" Hg 1017.1 hPa